createdAt,value
2022-10-23T00:02:04.211Z,54.73
2022-10-23T00:04:29.783Z,54.96
2022-10-23T00:06:55.331Z,54.70
2022-10-23T00:09:21.940Z,54.83
2022-10-23T00:11:47.790Z,54.72
2022-10-23T00:14:13.562Z,54.82
2022-10-23T00:16:39.119Z,54.91
2022-10-23T00:19:04.653Z,54.96
2022-10-23T00:21:30.210Z,54.67
2022-10-23T00:23:55.839Z,54.79
2022-10-23T00:26:21.414Z,54.79
2022-10-23T00:28:48.014Z,54.83
2022-10-23T00:31:13.715Z,55.00
2022-10-23T00:33:39.259Z,54.82
2022-10-23T00:36:05.619Z,54.78
2022-10-23T00:38:31.157Z,54.83
2022-10-23T00:40:56.712Z,54.83
2022-10-23T00:43:23.267Z,54.86
2022-10-23T00:45:48.818Z,54.70
2022-10-23T00:48:14.358Z,54.79
2022-10-23T00:50:40.010Z,54.77
2022-10-23T00:53:05.555Z,54.77
2022-10-23T00:55:31.564Z,54.84
2022-10-23T00:57:57.101Z,55.05
2022-10-23T01:00:24.726Z,54.86
2022-10-23T01:02:50.482Z,54.69
2022-10-23T01:05:16.115Z,54.82
2022-10-23T01:07:45.176Z,54.84
2022-10-23T01:10:12.847Z,54.84
2022-10-23T01:12:44.459Z,54.72
2022-10-23T01:15:15.522Z,54.78
2022-10-23T01:17:44.513Z,54.85
2022-10-23T01:20:18.597Z,55.00
2022-10-23T01:23:03.478Z,54.77
2022-10-23T01:25:36.241Z,54.93
2022-10-23T01:28:02.710Z,54.78
2022-10-23T01:30:28.323Z,54.77
2022-10-23T01:32:56.016Z,54.73
2022-10-23T01:35:24.667Z,54.74
2022-10-23T01:37:54.321Z,54.74
2022-10-23T01:40:21.842Z,54.85
2022-10-23T01:42:48.803Z,54.74
2022-10-23T01:45:17.356Z,54.87
2022-10-23T01:47:43.298Z,54.70
2022-10-23T01:50:09.006Z,54.82
2022-10-23T01:52:34.561Z,54.73
2022-10-23T01:55:00.489Z,54.83
2022-10-23T01:57:27.097Z,54.84
2022-10-23T01:59:54.207Z,54.75
2022-10-23T02:02:19.858Z,54.68
2022-10-23T02:05:05.387Z,54.68
2022-10-23T02:07:30.931Z,54.77
2022-10-23T02:09:56.497Z,54.65
2022-10-23T02:12:41.938Z,54.77
2022-10-23T02:15:11.402Z,54.92
2022-10-23T02:17:44.179Z,54.83
2022-10-23T02:20:28.192Z,54.88
2022-10-23T02:22:56.975Z,54.73
2022-10-23T02:25:24.942Z,54.66
2022-10-23T02:27:51.530Z,54.74
2022-10-23T02:30:17.653Z,54.89
2022-10-23T02:32:45.623Z,54.59
2022-10-23T02:35:11.276Z,54.63
2022-10-23T02:37:36.822Z,54.67
2022-10-23T02:40:03.187Z,54.74
2022-10-23T02:42:30.195Z,54.87
2022-10-23T02:45:14.960Z,54.76
2022-10-23T02:50:49.363Z,54.73
2022-10-23T02:53:20.567Z,54.74
2022-10-23T02:58:31.994Z,54.84
2022-10-23T03:01:02.763Z,54.66
2022-10-23T03:03:30.968Z,54.86
2022-10-23T03:05:56.522Z,54.76
2022-10-23T03:08:22.172Z,54.72
2022-10-23T03:13:14.254Z,54.79
2022-10-23T03:15:39.786Z,54.77
2022-10-23T03:18:05.334Z,54.71
2022-10-23T03:20:30.892Z,54.75
2022-10-23T03:22:56.429Z,54.67
2022-10-23T03:25:21.968Z,54.77
2022-10-23T03:27:47.515Z,54.79
2022-10-23T03:30:14.794Z,54.82
2022-10-23T03:32:40.522Z,54.78
2022-10-23T03:35:06.431Z,54.78
2022-10-23T03:37:31.982Z,54.75
2022-10-23T03:39:57.531Z,54.89
2022-10-23T03:42:23.081Z,54.76
2022-10-23T03:44:48.694Z,54.70
2022-10-23T03:47:14.244Z,54.73
2022-10-23T03:49:39.785Z,54.65
2022-10-23T03:52:05.339Z,54.92
2022-10-23T03:54:31.355Z,54.85
2022-10-23T03:56:57.740Z,54.67
2022-10-23T03:59:23.555Z,54.66
2022-10-23T04:01:49.171Z,54.82
2022-10-23T04:04:14.808Z,54.79
2022-10-23T04:06:40.465Z,54.68
2022-10-23T04:09:06.312Z,54.60
2022-10-23T04:11:31.976Z,54.65
2022-10-23T04:13:57.526Z,54.83
2022-10-23T04:16:23.598Z,54.80
2022-10-23T04:18:49.195Z,54.77
2022-10-23T04:21:14.837Z,54.70
2022-10-23T04:23:40.418Z,54.65
2022-10-23T04:26:05.966Z,54.52
2022-10-23T04:28:31.514Z,54.86
2022-10-23T04:30:57.065Z,54.78
2022-10-23T04:33:22.643Z,54.86
2022-10-23T04:35:48.199Z,54.67
2022-10-23T04:38:13.746Z,54.77
2022-10-23T04:40:39.302Z,54.83
2022-10-23T04:43:04.846Z,54.71
2022-10-23T04:45:30.399Z,54.63
2022-10-23T04:47:55.950Z,54.60
2022-10-23T04:50:21.665Z,54.78
2022-10-23T04:52:47.202Z,54.76
2022-10-23T04:55:12.757Z,54.77
2022-10-23T04:57:38.300Z,54.70
2022-10-23T05:00:04.255Z,54.65
2022-10-23T05:02:29.804Z,54.76
2022-10-23T05:04:55.346Z,54.66
2022-10-23T05:09:47.397Z,54.77
2022-10-23T05:12:12.953Z,54.72
2022-10-23T05:14:38.493Z,54.65
2022-10-23T05:17:06.888Z,54.73
2022-10-23T05:19:34.012Z,54.81
2022-10-23T05:21:59.563Z,54.75
2022-10-23T05:24:25.351Z,54.65
2022-10-23T05:26:52.047Z,54.72
2022-10-23T05:29:18.908Z,54.68
2022-10-23T05:31:44.467Z,54.73
2022-10-23T05:34:13.348Z,54.82
2022-10-23T05:36:39.166Z,54.87
2022-10-23T05:39:04.709Z,54.60
2022-10-23T05:41:30.382Z,54.68
2022-10-23T05:43:55.926Z,54.60
2022-10-23T05:46:22.382Z,54.68
2022-10-23T05:48:49.518Z,54.56
2022-10-23T05:51:19.418Z,54.61
2022-10-23T05:53:44.959Z,54.63
2022-10-23T05:56:10.525Z,54.59
2022-10-23T05:58:36.072Z,54.83
2022-10-23T06:01:05.717Z,54.63
2022-10-23T06:03:31.305Z,54.72
2022-10-23T06:05:56.864Z,54.80
2022-10-23T06:08:23.536Z,54.59
2022-10-23T06:10:49.151Z,54.74
2022-10-23T06:13:14.828Z,54.69
2022-10-23T06:15:40.380Z,54.75
2022-10-23T06:18:05.916Z,54.66
2022-10-23T06:20:33.865Z,54.66
2022-10-23T06:22:59.418Z,54.65
2022-10-23T06:25:24.964Z,54.75
2022-10-23T06:27:50.515Z,54.77
2022-10-23T06:30:16.135Z,54.66
2022-10-23T06:32:42.109Z,54.72
2022-10-23T06:35:07.917Z,54.63
2022-10-23T06:37:33.499Z,54.63
2022-10-23T06:39:59.040Z,54.70
2022-10-23T06:42:24.607Z,54.69
2022-10-23T06:44:50.160Z,54.68
2022-10-23T06:49:46.209Z,54.74
2022-10-23T06:52:18.510Z,54.72
2022-10-23T06:54:54.237Z,54.72
2022-10-23T06:57:19.789Z,54.75
2022-10-23T06:59:45.339Z,54.74
2022-10-23T07:02:10.888Z,54.71
2022-10-23T07:04:36.441Z,54.61
2022-10-23T07:07:01.990Z,54.61
2022-10-23T07:09:27.534Z,54.71
2022-10-23T07:11:53.084Z,54.72
2022-10-23T07:14:18.629Z,54.74
2022-10-23T07:16:44.179Z,54.59
2022-10-23T07:19:09.722Z,54.69
2022-10-23T07:21:35.268Z,54.67
2022-10-23T07:24:01.126Z,54.74
2022-10-23T07:26:26.886Z,54.79
2022-10-23T07:28:54.342Z,54.65
2022-10-23T07:31:24.304Z,54.70
2022-10-23T07:33:52.788Z,54.76
2022-10-23T07:36:18.407Z,54.57
2022-10-23T07:38:43.958Z,54.62
2022-10-23T07:41:12.254Z,54.61
2022-10-23T07:43:38.015Z,54.53
2022-10-23T07:46:03.585Z,54.62
2022-10-23T07:48:29.245Z,54.57
2022-10-23T07:51:00.106Z,54.68
2022-10-23T07:53:25.649Z,54.65
2022-10-23T07:55:52.690Z,54.70
2022-10-23T07:58:18.229Z,54.58
2022-10-23T08:00:44.577Z,54.70
2022-10-23T08:03:11.920Z,54.61
2022-10-23T08:05:37.585Z,54.71
2022-10-23T08:08:03.160Z,54.54
2022-10-23T08:10:28.704Z,54.57
2022-10-23T08:12:54.257Z,54.60
2022-10-23T08:15:19.801Z,54.66
2022-10-23T08:17:45.687Z,54.58
2022-10-23T08:20:12.929Z,54.58
2022-10-23T08:22:38.796Z,54.52
2022-10-23T08:25:04.488Z,54.62
2022-10-23T08:27:30.043Z,54.61
2022-10-23T08:29:55.585Z,54.62
2022-10-23T08:32:21.141Z,54.59
2022-10-23T08:34:46.733Z,54.55
2022-10-23T08:37:12.300Z,54.54
2022-10-23T08:39:37.855Z,54.63
2022-10-23T08:42:03.451Z,54.55
2022-10-23T08:44:33.350Z,54.54
2022-10-23T08:49:38.685Z,54.55
2022-10-23T08:52:09.220Z,54.61
2022-10-23T08:54:44.666Z,54.46
2022-10-23T08:57:13.144Z,54.71
2022-10-23T08:59:40.992Z,54.61
2022-10-23T09:04:41.834Z,54.68
2022-10-23T09:07:12.245Z,54.62
2022-10-23T09:09:43.332Z,54.49
2022-10-23T09:12:11.858Z,55.02
2022-10-23T09:14:43.802Z,54.57
2022-10-23T09:17:21.429Z,54.52
2022-10-23T09:19:46.972Z,54.62
2022-10-23T09:22:12.517Z,54.59
2022-10-23T09:24:41.091Z,54.62
2022-10-23T09:27:08.531Z,54.68
2022-10-23T09:29:35.169Z,54.80
2022-10-23T09:32:02.042Z,54.63
2022-10-23T09:34:28.445Z,54.63
2022-10-23T09:39:29.668Z,54.54
2022-10-23T09:41:57.027Z,54.61
2022-10-23T09:44:24.245Z,54.55
2022-10-23T09:49:29.122Z,54.46
2022-10-23T09:51:59.602Z,54.57
2022-10-23T09:54:25.201Z,54.53
2022-10-23T09:56:50.752Z,54.68
2022-10-23T09:59:21.068Z,54.46
2022-10-23T10:04:41.162Z,54.54
2022-10-23T10:07:23.110Z,54.67
2022-10-23T10:09:48.686Z,54.48
2022-10-23T10:12:34.123Z,54.55
2022-10-23T10:15:03.006Z,54.72
2022-10-23T10:17:48.436Z,54.62
2022-10-23T10:20:23.338Z,54.58
2022-10-23T10:22:52.529Z,54.53
2022-10-23T10:25:24.721Z,54.49
2022-10-23T10:27:52.476Z,54.52
2022-10-23T10:30:19.826Z,54.46
2022-10-23T10:32:50.933Z,54.56
2022-10-23T10:35:20.026Z,54.58
2022-10-23T10:37:56.851Z,54.43
2022-10-23T10:40:27.347Z,54.55
2022-10-23T10:43:04.157Z,54.50
2022-10-23T10:45:38.321Z,54.49
2022-10-23T10:48:23.784Z,54.45
2022-10-23T10:50:51.878Z,54.58
2022-10-23T10:55:54.033Z,54.51
2022-10-23T10:58:20.986Z,54.54
2022-10-23T11:00:46.678Z,54.45
2022-10-23T11:03:36.109Z,54.63
2022-10-23T11:06:05.439Z,54.54
2022-10-23T11:08:44.378Z,54.42
2022-10-23T11:11:20.893Z,54.53
2022-10-23T11:13:46.430Z,54.50
2022-10-23T11:16:14.278Z,54.55
2022-10-23T11:18:41.526Z,54.57
2022-10-23T11:21:10.782Z,54.45
2022-10-23T11:23:41.737Z,54.49
2022-10-23T11:26:18.828Z,54.49
2022-10-23T11:28:51.345Z,54.51
2022-10-23T11:31:22.008Z,54.41
2022-10-23T11:33:54.377Z,54.46
2022-10-23T11:36:20.482Z,54.61
2022-10-23T11:38:46.985Z,54.45
2022-10-23T11:41:33.005Z,54.67
2022-10-23T11:44:02.613Z,54.59
2022-10-23T11:46:29.082Z,54.45
2022-10-23T11:48:54.955Z,54.50
2022-10-23T11:51:36.437Z,54.50
2022-10-23T11:56:54.070Z,54.53
2022-10-23T11:59:27.438Z,54.36
2022-10-23T12:01:53.161Z,54.52
2022-10-23T12:04:21.106Z,54.43
2022-10-23T12:06:50.808Z,54.43
2022-10-23T12:09:36.578Z,54.40
2022-10-23T12:14:45.257Z,54.56
2022-10-23T12:17:19.663Z,54.61
2022-10-23T12:19:46.929Z,54.43
2022-10-23T12:22:12.474Z,54.53
2022-10-23T12:24:47.289Z,54.44
2022-10-23T12:27:14.885Z,54.34
2022-10-23T12:30:00.354Z,54.52
2022-10-23T12:32:30.194Z,54.38
2022-10-23T12:35:06.309Z,54.50
2022-10-23T12:37:53.785Z,54.45
2022-10-23T12:40:19.346Z,54.45
2022-10-23T12:42:53.608Z,54.43
2022-10-23T12:45:20.569Z,54.50
2022-10-23T12:47:46.109Z,54.49
2022-10-23T12:50:16.805Z,54.59
2022-10-23T12:52:49.634Z,54.49
2022-10-23T12:55:15.226Z,54.43
2022-10-23T12:57:40.909Z,54.44
2022-10-23T13:00:09.559Z,54.37
2022-10-23T13:02:35.352Z,54.42
2022-10-23T13:05:01.537Z,54.40
2022-10-23T13:07:28.022Z,54.40
2022-10-23T13:09:53.584Z,54.44
2022-10-23T13:12:23.566Z,54.52
2022-10-23T13:15:00.329Z,54.49
2022-10-23T13:17:33.982Z,54.59
2022-10-23T13:20:19.587Z,54.57
2022-10-23T13:22:45.778Z,54.47
2022-10-23T13:25:31.486Z,54.44
2022-10-23T13:28:16.910Z,54.33
2022-10-23T13:30:45.114Z,54.43
2022-10-23T13:33:26.541Z,54.50
2022-10-23T13:36:12.983Z,54.38
2022-10-23T13:38:39.604Z,54.43
2022-10-23T13:41:05.765Z,54.34
2022-10-23T13:43:31.500Z,54.44
2022-10-23T13:45:57.615Z,54.44
2022-10-23T13:48:23.312Z,54.42
2022-10-23T13:50:48.893Z,54.41
2022-10-23T13:53:14.589Z,54.41
2022-10-23T13:55:40.549Z,54.53
2022-10-23T13:58:06.099Z,54.43
2022-10-23T14:00:31.653Z,54.53
2022-10-23T14:02:57.200Z,54.43
2022-10-23T14:05:22.753Z,54.46
2022-10-23T14:07:48.293Z,54.35
2022-10-23T14:10:13.842Z,54.42
2022-10-23T14:12:40.018Z,54.45
2022-10-23T14:15:05.994Z,54.40
2022-10-23T14:17:31.538Z,54.50
2022-10-23T14:19:57.093Z,54.41
2022-10-23T14:22:22.638Z,54.40
2022-10-23T14:24:48.192Z,54.38
2022-10-23T14:27:13.725Z,54.51
2022-10-23T14:29:39.356Z,54.50
2022-10-23T14:32:04.897Z,54.40
2022-10-23T14:34:30.459Z,54.38
2022-10-23T14:37:08.057Z,54.43
2022-10-23T14:39:34.275Z,54.38
2022-10-23T14:41:59.820Z,54.42
2022-10-23T14:44:25.426Z,54.43
2022-10-23T14:46:51.318Z,54.42
2022-10-23T14:49:16.876Z,54.28
2022-10-23T14:51:42.422Z,54.46
2022-10-23T14:54:07.967Z,54.72
2022-10-23T14:56:34.995Z,54.46
2022-10-23T14:59:03.485Z,54.33
2022-10-23T15:01:29.374Z,54.48
2022-10-23T15:03:56.087Z,54.42
2022-10-23T15:06:22.017Z,54.53
2022-10-23T15:08:49.138Z,54.48
2022-10-23T15:11:14.691Z,54.49
2022-10-23T15:13:40.227Z,54.49
2022-10-23T15:16:06.805Z,54.40
2022-10-23T15:18:32.614Z,54.42
2022-10-23T15:20:58.271Z,54.54
2022-10-23T15:23:23.806Z,54.43
2022-10-23T15:25:57.474Z,54.45
2022-10-23T15:28:23.010Z,54.57
2022-10-23T15:30:48.561Z,54.35
2022-10-23T15:33:19.108Z,54.37
2022-10-23T15:35:45.542Z,54.41
2022-10-23T15:38:11.082Z,54.45
2022-10-23T15:40:36.625Z,54.40
2022-10-23T15:43:02.166Z,54.38
2022-10-23T15:45:30.581Z,54.44
2022-10-23T15:47:57.074Z,54.40
2022-10-23T15:50:22.796Z,54.48
2022-10-23T15:52:48.333Z,54.49
2022-10-23T15:55:13.894Z,54.48
2022-10-23T15:57:39.747Z,54.36
2022-10-23T16:00:05.755Z,54.41
2022-10-23T16:02:31.400Z,54.46
2022-10-23T16:04:57.061Z,54.58
2022-10-23T16:07:22.598Z,54.50
2022-10-23T16:09:48.152Z,54.65
2022-10-23T16:12:13.698Z,54.50
2022-10-23T16:14:39.293Z,54.54
2022-10-23T16:17:06.703Z,54.45
2022-10-23T16:19:32.522Z,54.44
2022-10-23T16:21:58.063Z,54.51
2022-10-23T16:24:23.619Z,54.43
2022-10-23T16:26:52.214Z,54.40
2022-10-23T16:29:18.403Z,54.54
2022-10-23T16:31:44.006Z,54.34
2022-10-23T16:34:09.623Z,54.34
2022-10-23T16:36:38.067Z,54.52
2022-10-23T16:39:03.994Z,54.53
2022-10-23T16:41:29.536Z,54.34
2022-10-23T16:43:55.084Z,54.55
2022-10-23T16:46:20.806Z,54.55
2022-10-23T16:48:46.833Z,54.52
2022-10-23T16:51:13.430Z,54.53
2022-10-23T16:53:39.067Z,54.40
2022-10-23T16:56:05.246Z,54.43
2022-10-23T16:58:30.906Z,54.51
2022-10-23T17:01:01.007Z,54.51
2022-10-23T17:11:41.361Z,54.36
2022-10-23T17:14:10.486Z,54.42
2022-10-23T17:16:39.137Z,54.38
2022-10-23T17:19:15.793Z,54.51
2022-10-23T17:21:46.691Z,54.36
2022-10-23T17:24:12.567Z,54.41
2022-10-23T17:26:38.743Z,54.49
2022-10-23T17:29:05.235Z,54.51
2022-10-23T17:31:31.736Z,54.33
2022-10-23T17:33:58.205Z,54.40
2022-10-23T17:36:24.507Z,54.25
2022-10-23T17:38:50.047Z,54.44
2022-10-23T17:46:40.725Z,54.44
2022-10-23T17:49:06.276Z,54.48
2022-10-23T17:51:32.630Z,54.27
2022-10-23T17:53:59.829Z,54.28
2022-10-23T17:56:26.429Z,54.41
2022-10-23T17:58:52.467Z,54.50
2022-10-23T18:01:19.274Z,54.21
2022-10-23T18:03:44.922Z,54.31
2022-10-23T18:06:11.762Z,54.36
2022-10-23T18:08:37.798Z,54.06
2022-10-23T18:11:04.275Z,54.29
2022-10-23T18:13:30.720Z,54.31
2022-10-23T18:15:59.412Z,54.39
2022-10-23T18:18:24.947Z,54.20
2022-10-23T18:20:50.494Z,54.27
2022-10-23T18:23:16.046Z,54.31
2022-10-23T18:25:42.108Z,54.31
2022-10-23T18:28:07.653Z,54.19
2022-10-23T18:30:35.382Z,54.24
2022-10-23T18:33:00.984Z,54.27
2022-10-23T18:35:26.533Z,54.06
2022-10-23T18:37:52.081Z,54.25
2022-10-23T18:40:17.667Z,54.46
2022-10-23T18:42:43.635Z,54.26
2022-10-23T18:45:10.423Z,54.21
2022-10-23T18:47:35.965Z,54.26
2022-10-23T18:50:01.519Z,54.23
2022-10-23T18:52:27.074Z,54.31
2022-10-23T18:54:52.629Z,54.26
2022-10-23T18:57:18.166Z,54.16
2022-10-23T18:59:43.723Z,54.24
2022-10-23T19:02:09.498Z,54.40
2022-10-23T19:04:36.406Z,54.33
2022-10-23T19:07:02.095Z,54.31
2022-10-23T19:09:27.650Z,54.16
2022-10-23T19:11:53.191Z,54.31
2022-10-23T19:14:18.739Z,54.36
2022-10-23T19:16:50.648Z,54.24
2022-10-23T19:19:19.098Z,54.18
2022-10-23T19:21:44.646Z,54.12
2022-10-23T19:24:11.666Z,54.28
2022-10-23T19:26:37.200Z,54.01
2022-10-23T19:29:03.403Z,54.28
2022-10-23T19:31:28.951Z,54.31
2022-10-23T19:33:54.489Z,54.20
2022-10-23T19:36:23.401Z,54.38
2022-10-23T19:38:49.343Z,54.16
2022-10-23T19:41:16.451Z,54.26
2022-10-23T19:43:41.991Z,54.34
2022-10-23T19:46:11.037Z,54.28
2022-10-23T19:48:41.479Z,54.18
2022-10-23T19:51:07.049Z,54.24
2022-10-23T19:53:33.302Z,54.16
2022-10-23T19:56:00.405Z,54.19
2022-10-23T19:58:25.945Z,54.51
2022-10-23T20:00:51.491Z,54.13
2022-10-23T20:03:18.654Z,54.20
2022-10-23T20:05:44.863Z,54.33
2022-10-23T20:08:10.995Z,54.33
2022-10-23T20:10:40.826Z,54.29
2022-10-23T20:13:19.352Z,54.15
2022-10-23T20:15:45.893Z,54.24
2022-10-23T20:18:11.432Z,54.25
2022-10-23T20:20:40.575Z,54.27
2022-10-23T20:23:06.114Z,54.29
2022-10-23T20:25:31.675Z,54.17
2022-10-23T20:27:57.221Z,54.20
2022-10-23T20:30:22.774Z,54.33
2022-10-23T20:32:48.313Z,54.14
2022-10-23T20:35:13.886Z,54.23
2022-10-23T20:37:39.455Z,54.36
2022-10-23T20:40:05.263Z,54.12
2022-10-23T20:42:30.806Z,54.18
2022-10-23T20:44:56.352Z,54.23
2022-10-23T20:47:21.892Z,54.35
2022-10-23T20:49:47.443Z,54.12
2022-10-23T20:52:12.990Z,54.26
2022-10-23T20:54:39.450Z,54.16
2022-10-23T20:57:04.990Z,54.19
2022-10-23T20:59:30.558Z,54.32
2022-10-23T21:01:56.820Z,54.15
2022-10-23T21:04:23.223Z,54.26
2022-10-23T21:07:08.769Z,54.18
2022-10-23T21:09:35.058Z,54.14
2022-10-23T21:12:00.597Z,54.09
2022-10-23T21:14:26.517Z,54.13
2022-10-23T21:16:52.059Z,54.18
2022-10-23T21:19:17.634Z,54.31
2022-10-23T21:21:43.507Z,54.17
2022-10-23T21:24:09.964Z,54.13
2022-10-23T21:26:35.507Z,54.14
2022-10-23T21:29:17.339Z,54.34
2022-10-23T21:31:43.863Z,54.23
2022-10-23T21:37:00.178Z,54.25
2022-10-23T21:39:25.648Z,54.25
2022-10-23T21:41:51.192Z,54.13
2022-10-23T21:44:16.745Z,54.38
2022-10-23T21:46:43.332Z,54.11
2022-10-23T21:49:09.043Z,54.15
2022-10-23T21:51:36.306Z,54.33
2022-10-23T21:54:02.350Z,54.23
2022-10-23T21:56:29.108Z,54.24
2022-10-23T21:58:54.925Z,54.21
2022-10-23T22:01:20.586Z,54.15
2022-10-23T22:03:46.242Z,54.23
2022-10-23T22:06:15.878Z,54.12
2022-10-23T22:08:41.429Z,54.10
2022-10-23T22:11:06.978Z,54.22
2022-10-23T22:13:32.529Z,54.09
2022-10-23T22:16:00.794Z,54.17
2022-10-23T22:18:26.347Z,54.11
2022-10-23T22:20:51.910Z,54.11
2022-10-23T22:23:17.452Z,54.12
2022-10-23T22:25:43.007Z,54.21
2022-10-23T22:28:08.555Z,54.28
2022-10-23T22:30:36.000Z,54.27
2022-10-23T22:33:01.547Z,54.14
2022-10-23T22:35:27.097Z,54.06
2022-10-23T22:37:52.638Z,54.16
2022-10-23T22:40:18.185Z,54.20
2022-10-23T22:42:44.064Z,54.07
2022-10-23T22:45:09.823Z,54.18
2022-10-23T22:47:35.365Z,54.07
2022-10-23T22:50:00.918Z,54.03
2022-10-23T22:52:26.464Z,54.08
2022-10-23T22:54:52.024Z,54.15
2022-10-23T22:57:17.600Z,54.13
2022-10-23T22:59:43.167Z,54.26
2022-10-23T23:02:09.218Z,54.27
2022-10-23T23:04:38.873Z,54.26
2022-10-23T23:07:06.098Z,54.07
2022-10-23T23:09:33.031Z,54.20
2022-10-23T23:11:58.571Z,54.19
2022-10-23T23:14:24.626Z,54.18
2022-10-23T23:16:50.845Z,54.11
2022-10-23T23:19:16.394Z,54.10
2022-10-23T23:21:41.939Z,54.09
2022-10-23T23:24:08.685Z,54.01
2022-10-23T23:26:34.238Z,54.14
2022-10-23T23:28:59.788Z,54.17
2022-10-23T23:31:25.633Z,54.19
2022-10-23T23:33:51.486Z,54.03
2022-10-23T23:36:18.550Z,54.12
2022-10-23T23:38:44.118Z,54.29
2022-10-23T23:41:13.761Z,54.14
2022-10-23T23:43:39.546Z,54.14
2022-10-23T23:46:05.089Z,54.18
2022-10-23T23:48:30.626Z,54.10
2022-10-23T23:50:56.200Z,54.17
2022-10-23T23:53:21.760Z,54.08
2022-10-23T23:55:47.307Z,54.18
2022-10-23T23:58:12.854Z,54.25
